DLH67P LOWS-EDDF
Flight info
| Callsign | DLH67P |
|---|---|
| Flight time | 0h 49m |
| Altitude | 30000 |
| Route | INROM DCT SIMBA Y700 NENUM T161 DEBHI DEBHI1B |
| Aircraft | A320/M-SDE2E3FGIJ1LORWXYZ/HB1 |
Departure
| Time | 2026-05-06 15:34 |
|---|---|
| Airport | Salzburg Airport (LOWS) |
Arrival
| Time | 2026-05-06 16:23 |
|---|---|
| Airport | Frankfurt Main Airport (EDDF) |
| Time | Latitude | Longitude | Altitude | Speed | Heading |
|---|---|---|---|---|---|
| 2026-05-06 15:06 | 47.79068 | 13.00191 | 1422 ft | 0 kts | 102° |
| 2026-05-06 15:22 | 47.79069 | 13.00180 | 1422 ft | 4 kts | 102° |
| 2026-05-06 15:22 | 47.79075 | 13.00141 | 1422 ft | 4 kts | 102° |
| 2026-05-06 15:23 | 47.79081 | 13.00109 | 1422 ft | 4 kts | 111° |
| 2026-05-06 15:23 | 47.79094 | 13.00075 | 1422 ft | 4 kts | 137° |
| 2026-05-06 15:23 | 47.79112 | 13.00057 | 1422 ft | 1 kts | 157° |
| 2026-05-06 15:23 | 47.79115 | 13.00055 | 1422 ft | 0 kts | 157° |
| 2026-05-06 15:28 | 47.79102 | 13.00063 | 1422 ft | 7 kts | 158° |
| 2026-05-06 15:28 | 47.79032 | 13.00107 | 1422 ft | 11 kts | 156° |
| 2026-05-06 15:29 | 47.78967 | 13.00156 | 1422 ft | 9 kts | 138° |
| 2026-05-06 15:29 | 47.78955 | 13.00242 | 1422 ft | 8 kts | 91° |
| 2026-05-06 15:29 | 47.78952 | 13.00336 | 1420 ft | 11 kts | 96° |
| 2026-05-06 15:29 | 47.78896 | 13.00402 | 1420 ft | 10 kts | 156° |
| 2026-05-06 15:30 | 47.78837 | 13.00440 | 1420 ft | 9 kts | 156° |
| 2026-05-06 15:30 | 47.78787 | 13.00473 | 1421 ft | 7 kts | 156° |
| 2026-05-06 15:30 | 47.78744 | 13.00500 | 1423 ft | 6 kts | 156° |
| 2026-05-06 15:30 | 47.78697 | 13.00530 | 1420 ft | 12 kts | 157° |
| 2026-05-06 15:31 | 47.78601 | 13.00591 | 1420 ft | 15 kts | 157° |
| 2026-05-06 15:31 | 47.78510 | 13.00649 | 1420 ft | 13 kts | 157° |
| 2026-05-06 15:31 | 47.78430 | 13.00699 | 1420 ft | 12 kts | 157° |
| 2026-05-06 15:32 | 47.78302 | 13.00780 | 1420 ft | 8 kts | 157° |
| 2026-05-06 15:32 | 47.78253 | 13.00812 | 1420 ft | 7 kts | 154° |
| 2026-05-06 15:32 | 47.78215 | 13.00852 | 1423 ft | 8 kts | 139° |
| 2026-05-06 15:32 | 47.78185 | 13.00971 | 1423 ft | 15 kts | 86° |
| 2026-05-06 15:33 | 47.78240 | 13.01079 | 1419 ft | 14 kts | 356° |
| 2026-05-06 15:33 | 47.78335 | 13.01023 | 1418 ft | 16 kts | 336° |
| 2026-05-06 15:33 | 47.78560 | 13.00885 | 1423 ft | 69 kts | 337° |
| 2026-05-06 15:33 | 47.79218 | 13.00466 | 1421 ft | 133 kts | 337° |
| 2026-05-06 15:34 | 47.80243 | 12.99864 | 1529 ft | 174 kts | 341° |
| 2026-05-06 15:34 | 47.81003 | 12.99396 | 1924 ft | 180 kts | 340° |
| 2026-05-06 15:34 | 47.82201 | 12.99039 | 2714 ft | 177 kts | 5° |
| 2026-05-06 15:34 | 47.83407 | 12.99640 | 3158 ft | 195 kts | 35° |
| 2026-05-06 15:35 | 47.84977 | 13.01341 | 3672 ft | 227 kts | 38° |
| 2026-05-06 15:35 | 47.86316 | 13.02808 | 4160 ft | 251 kts | 37° |
| 2026-05-06 15:35 | 47.87295 | 13.03875 | 4556 ft | 263 kts | 38° |
| 2026-05-06 15:35 | 47.88800 | 13.05510 | 5347 ft | 273 kts | 37° |
| 2026-05-06 15:36 | 47.90361 | 13.07203 | 6174 ft | 281 kts | 37° |
| 2026-05-06 15:36 | 47.91959 | 13.08934 | 6981 ft | 287 kts | 37° |
| 2026-05-06 15:36 | 47.93597 | 13.10713 | 7794 ft | 295 kts | 37° |
| 2026-05-06 15:36 | 47.95255 | 13.12510 | 8599 ft | 302 kts | 36° |
| 2026-05-06 15:37 | 47.96978 | 13.14377 | 9402 ft | 310 kts | 35° |
| 2026-05-06 15:37 | 47.98873 | 13.15984 | 10116 ft | 317 kts | 20° |
| 2026-05-06 15:37 | 48.01070 | 13.16836 | 10443 ft | 337 kts | 2° |
| 2026-05-06 15:37 | 48.03446 | 13.16673 | 10900 ft | 346 kts | 344° |
| 2026-05-06 15:38 | 48.05714 | 13.15493 | 11613 ft | 345 kts | 328° |
| 2026-05-06 15:38 | 48.07840 | 13.13799 | 12424 ft | 348 kts | 327° |
| 2026-05-06 15:38 | 48.09982 | 13.12080 | 13201 ft | 351 kts | 326° |
| 2026-05-06 15:38 | 48.12148 | 13.10338 | 13919 ft | 356 kts | 326° |
| 2026-05-06 15:39 | 48.14344 | 13.08569 | 14583 ft | 360 kts | 326° |
| 2026-05-06 15:39 | 48.16537 | 13.06800 | 15241 ft | 364 kts | 326° |
| 2026-05-06 15:39 | 48.18784 | 13.04989 | 15868 ft | 369 kts | 326° |
| 2026-05-06 15:39 | 48.21063 | 13.03160 | 16513 ft | 374 kts | 327° |
| 2026-05-06 15:40 | 48.23508 | 13.01677 | 17143 ft | 385 kts | 338° |
| 2026-05-06 15:40 | 48.26169 | 13.00869 | 17767 ft | 395 kts | 347° |
| 2026-05-06 15:40 | 48.28912 | 13.00280 | 18341 ft | 400 kts | 347° |
| 2026-05-06 15:40 | 48.31686 | 12.99675 | 18921 ft | 403 kts | 347° |
| 2026-05-06 15:41 | 48.34476 | 12.99063 | 19514 ft | 406 kts | 347° |
| 2026-05-06 15:41 | 48.37282 | 12.98443 | 20122 ft | 409 kts | 347° |
| 2026-05-06 15:41 | 48.40112 | 12.97818 | 20669 ft | 412 kts | 347° |
| 2026-05-06 15:41 | 48.42928 | 12.97197 | 21197 ft | 416 kts | 347° |
| 2026-05-06 15:42 | 48.45802 | 12.96556 | 21723 ft | 419 kts | 345° |
| 2026-05-06 15:42 | 48.48606 | 12.95428 | 22233 ft | 415 kts | 333° |
| 2026-05-06 15:42 | 48.51168 | 12.93496 | 22742 ft | 409 kts | 321° |
| 2026-05-06 15:42 | 48.53400 | 12.90879 | 23254 ft | 403 kts | 309° |
| 2026-05-06 15:43 | 48.55224 | 12.87716 | 23693 ft | 397 kts | 298° |
| 2026-05-06 15:43 | 48.56598 | 12.84152 | 24139 ft | 389 kts | 287° |
| 2026-05-06 15:43 | 48.57602 | 12.80377 | 24589 ft | 388 kts | 284° |
| 2026-05-06 15:43 | 48.58588 | 12.76564 | 25029 ft | 390 kts | 284° |
| 2026-05-06 15:44 | 48.59582 | 12.72743 | 25477 ft | 392 kts | 284° |
| 2026-05-06 15:44 | 48.60579 | 12.68900 | 25916 ft | 394 kts | 284° |
| 2026-05-06 15:44 | 48.61577 | 12.65037 | 26333 ft | 396 kts | 284° |
| 2026-05-06 15:44 | 48.62565 | 12.61193 | 26745 ft | 398 kts | 284° |
| 2026-05-06 15:45 | 48.63569 | 12.57276 | 27166 ft | 399 kts | 284° |
| 2026-05-06 15:45 | 48.64576 | 12.53347 | 27577 ft | 401 kts | 284° |
| 2026-05-06 15:45 | 48.65588 | 12.49388 | 27993 ft | 403 kts | 284° |
| 2026-05-06 15:45 | 48.66604 | 12.45417 | 28402 ft | 405 kts | 284° |
| 2026-05-06 15:46 | 48.67621 | 12.41438 | 28816 ft | 407 kts | 284° |
| 2026-05-06 15:46 | 48.68629 | 12.37485 | 29228 ft | 408 kts | 284° |
| 2026-05-06 15:46 | 48.69651 | 12.33465 | 29615 ft | 410 kts | 284° |
| 2026-05-06 15:46 | 48.70674 | 12.29435 | 29723 ft | 405 kts | 284° |
| 2026-05-06 15:47 | 48.71669 | 12.25543 | 29751 ft | 388 kts | 284° |
| 2026-05-06 15:47 | 48.72632 | 12.21770 | 29730 ft | 381 kts | 284° |
| 2026-05-06 15:47 | 48.74508 | 12.14319 | 29732 ft | 377 kts | 283° |
| 2026-05-06 15:48 | 48.75595 | 12.06689 | 29740 ft | 368 kts | 272° |
| 2026-05-06 15:48 | 48.76416 | 11.99068 | 29749 ft | 369 kts | 273° |
| 2026-05-06 15:49 | 48.77249 | 11.91386 | 29756 ft | 368 kts | 273° |
| 2026-05-06 15:49 | 48.78068 | 11.83717 | 29789 ft | 368 kts | 272° |
| 2026-05-06 15:50 | 48.78888 | 11.76045 | 29782 ft | 368 kts | 272° |
| 2026-05-06 15:50 | 48.79703 | 11.68354 | 29783 ft | 369 kts | 272° |
| 2026-05-06 15:51 | 48.80504 | 11.60712 | 29779 ft | 369 kts | 272° |
| 2026-05-06 15:51 | 48.81306 | 11.53022 | 29783 ft | 369 kts | 271° |
| 2026-05-06 15:52 | 48.82095 | 11.45319 | 29778 ft | 369 kts | 271° |
| 2026-05-06 15:52 | 48.82873 | 11.37651 | 29782 ft | 370 kts | 271° |
| 2026-05-06 15:53 | 48.83653 | 11.29940 | 29759 ft | 370 kts | 271° |
| 2026-05-06 15:53 | 48.85218 | 11.22374 | 29734 ft | 387 kts | 291° |
| 2026-05-06 15:54 | 48.86760 | 11.18959 | 29735 ft | 398 kts | 303° |
| 2026-05-06 15:54 | 48.88759 | 11.15966 | 29736 ft | 406 kts | 310° |
| 2026-05-06 15:54 | 48.92936 | 11.10186 | 29746 ft | 406 kts | 310° |
| 2026-05-06 15:55 | 48.97102 | 11.04363 | 29754 ft | 406 kts | 309° |
| 2026-05-06 15:55 | 49.01277 | 10.98499 | 29777 ft | 407 kts | 310° |
| 2026-05-06 15:56 | 49.05416 | 10.92673 | 29789 ft | 407 kts | 310° |
| 2026-05-06 15:56 | 49.09585 | 10.86794 | 29785 ft | 407 kts | 310° |
| 2026-05-06 15:57 | 49.11656 | 10.83873 | 29647 ft | 402 kts | 310° |
| 2026-05-06 15:57 | 49.13703 | 10.80990 | 29186 ft | 397 kts | 310° |
| 2026-05-06 15:57 | 49.15722 | 10.78133 | 28686 ft | 393 kts | 310° |
| 2026-05-06 15:57 | 49.17694 | 10.75334 | 28202 ft | 390 kts | 310° |
| 2026-05-06 15:58 | 49.19671 | 10.72522 | 27723 ft | 386 kts | 310° |
| 2026-05-06 15:58 | 49.21593 | 10.69674 | 27244 ft | 382 kts | 309° |
| 2026-05-06 15:58 | 49.23451 | 10.66779 | 26758 ft | 379 kts | 309° |
| 2026-05-06 15:58 | 49.25268 | 10.63867 | 26267 ft | 377 kts | 309° |
| 2026-05-06 15:59 | 49.27062 | 10.60967 | 25859 ft | 373 kts | 309° |
| 2026-05-06 15:59 | 49.28845 | 10.58097 | 25449 ft | 369 kts | 309° |
| 2026-05-06 15:59 | 49.30612 | 10.55270 | 25032 ft | 366 kts | 309° |
| 2026-05-06 15:59 | 49.32373 | 10.52472 | 24615 ft | 363 kts | 310° |
| 2026-05-06 16:00 | 49.34107 | 10.49730 | 24216 ft | 361 kts | 310° |
| 2026-05-06 16:00 | 49.35828 | 10.46967 | 23874 ft | 356 kts | 306° |
| 2026-05-06 16:00 | 49.37306 | 10.43953 | 23512 ft | 351 kts | 301° |
| 2026-05-06 16:00 | 49.38709 | 10.40890 | 23085 ft | 349 kts | 301° |
| 2026-05-06 16:01 | 49.40100 | 10.37854 | 22642 ft | 347 kts | 301° |
| 2026-05-06 16:01 | 49.41484 | 10.34825 | 22193 ft | 345 kts | 301° |
| 2026-05-06 16:01 | 49.42854 | 10.31817 | 21756 ft | 343 kts | 301° |
| 2026-05-06 16:01 | 49.44218 | 10.28816 | 21319 ft | 341 kts | 301° |
| 2026-05-06 16:02 | 49.45572 | 10.25834 | 20881 ft | 340 kts | 301° |
| 2026-05-06 16:02 | 49.46922 | 10.22863 | 20459 ft | 337 kts | 301° |
| 2026-05-06 16:02 | 49.48264 | 10.19904 | 20049 ft | 335 kts | 301° |
| 2026-05-06 16:02 | 49.49593 | 10.16970 | 19654 ft | 333 kts | 301° |
| 2026-05-06 16:03 | 49.50899 | 10.14081 | 19262 ft | 331 kts | 301° |
| 2026-05-06 16:03 | 49.52211 | 10.11175 | 18897 ft | 330 kts | 301° |
| 2026-05-06 16:03 | 49.53518 | 10.08283 | 18541 ft | 328 kts | 301° |
| 2026-05-06 16:03 | 49.54817 | 10.05401 | 18191 ft | 327 kts | 301° |
| 2026-05-06 16:04 | 49.56107 | 10.02533 | 17842 ft | 325 kts | 301° |
| 2026-05-06 16:04 | 49.57396 | 9.99664 | 17799 ft | 325 kts | 301° |
| 2026-05-06 16:04 | 49.58685 | 9.96795 | 17732 ft | 327 kts | 301° |
| 2026-05-06 16:04 | 49.59980 | 9.93919 | 17464 ft | 325 kts | 302° |
| 2026-05-06 16:05 | 49.61251 | 9.91098 | 17251 ft | 323 kts | 302° |
| 2026-05-06 16:05 | 49.62536 | 9.88246 | 16963 ft | 322 kts | 302° |
| 2026-05-06 16:05 | 49.63808 | 9.85412 | 16639 ft | 320 kts | 302° |
| 2026-05-06 16:05 | 49.65073 | 9.82586 | 16303 ft | 319 kts | 302° |
| 2026-05-06 16:06 | 49.66330 | 9.79778 | 15981 ft | 317 kts | 302° |
| 2026-05-06 16:06 | 49.67580 | 9.76979 | 15656 ft | 316 kts | 302° |
| 2026-05-06 16:06 | 49.68826 | 9.74182 | 15326 ft | 315 kts | 302° |
| 2026-05-06 16:06 | 49.70063 | 9.71395 | 14999 ft | 313 kts | 302° |
| 2026-05-06 16:07 | 49.71292 | 9.68619 | 14692 ft | 312 kts | 302° |
| 2026-05-06 16:07 | 49.72500 | 9.65894 | 14379 ft | 310 kts | 302° |
| 2026-05-06 16:07 | 49.73721 | 9.63146 | 14064 ft | 309 kts | 302° |
| 2026-05-06 16:07 | 49.74935 | 9.60418 | 13749 ft | 307 kts | 302° |
| 2026-05-06 16:08 | 49.76144 | 9.57700 | 13447 ft | 305 kts | 302° |
| 2026-05-06 16:08 | 49.77339 | 9.55010 | 13103 ft | 303 kts | 302° |
| 2026-05-06 16:08 | 49.78668 | 9.52484 | 12756 ft | 304 kts | 317° |
| 2026-05-06 16:08 | 49.80377 | 9.50557 | 12408 ft | 303 kts | 324° |
| 2026-05-06 16:09 | 49.82103 | 9.48768 | 12067 ft | 302 kts | 324° |
| 2026-05-06 16:09 | 49.83853 | 9.46987 | 11728 ft | 300 kts | 324° |
| 2026-05-06 16:09 | 49.85600 | 9.45212 | 11382 ft | 299 kts | 324° |
| 2026-05-06 16:09 | 49.87331 | 9.43438 | 11044 ft | 297 kts | 324° |
| 2026-05-06 16:10 | 49.89058 | 9.41672 | 10679 ft | 296 kts | 324° |
| 2026-05-06 16:10 | 49.90767 | 9.39911 | 10357 ft | 294 kts | 324° |
| 2026-05-06 16:10 | 49.92465 | 9.38152 | 10033 ft | 293 kts | 324° |
| 2026-05-06 16:10 | 49.94165 | 9.36410 | 9730 ft | 291 kts | 324° |
| 2026-05-06 16:11 | 49.95850 | 9.34675 | 9433 ft | 290 kts | 324° |
| 2026-05-06 16:11 | 49.97534 | 9.32968 | 9141 ft | 289 kts | 324° |
| 2026-05-06 16:11 | 49.99220 | 9.31274 | 8775 ft | 287 kts | 323° |
| 2026-05-06 16:11 | 50.00890 | 9.29571 | 8401 ft | 285 kts | 324° |
| 2026-05-06 16:12 | 50.02543 | 9.27891 | 8045 ft | 283 kts | 324° |
| 2026-05-06 16:12 | 50.04178 | 9.26202 | 7677 ft | 280 kts | 324° |
| 2026-05-06 16:12 | 50.05778 | 9.24558 | 7311 ft | 279 kts | 324° |
| 2026-05-06 16:12 | 50.07385 | 9.22928 | 7105 ft | 270 kts | 324° |
| 2026-05-06 16:13 | 50.08927 | 9.21371 | 6993 ft | 259 kts | 323° |
| 2026-05-06 16:13 | 50.10419 | 9.19879 | 6846 ft | 249 kts | 324° |
| 2026-05-06 16:13 | 50.11861 | 9.18448 | 6589 ft | 245 kts | 324° |
| 2026-05-06 16:13 | 50.13289 | 9.17023 | 6285 ft | 242 kts | 323° |
| 2026-05-06 16:14 | 50.14710 | 9.15613 | 5947 ft | 241 kts | 324° |
| 2026-05-06 16:14 | 50.16122 | 9.14219 | 5612 ft | 239 kts | 324° |
| 2026-05-06 16:14 | 50.17530 | 9.12828 | 5288 ft | 238 kts | 324° |
| 2026-05-06 16:14 | 50.18869 | 9.11348 | 5024 ft | 231 kts | 308° |
| 2026-05-06 16:15 | 50.19589 | 9.09183 | 4971 ft | 224 kts | 275° |
| 2026-05-06 16:15 | 50.19410 | 9.06833 | 4974 ft | 220 kts | 244° |
| 2026-05-06 16:15 | 50.18635 | 9.04804 | 4992 ft | 222 kts | 235° |
| 2026-05-06 16:15 | 50.17747 | 9.02827 | 4990 ft | 221 kts | 234° |
| 2026-05-06 16:16 | 50.16850 | 9.00881 | 4994 ft | 221 kts | 234° |
| 2026-05-06 16:16 | 50.15951 | 8.98934 | 4994 ft | 222 kts | 234° |
| 2026-05-06 16:16 | 50.15075 | 8.96960 | 4997 ft | 220 kts | 239° |
| 2026-05-06 16:16 | 50.14403 | 8.94809 | 4998 ft | 222 kts | 246° |
| 2026-05-06 16:17 | 50.13852 | 8.92568 | 4989 ft | 219 kts | 248° |
| 2026-05-06 16:17 | 50.13346 | 8.90402 | 4989 ft | 205 kts | 249° |
| 2026-05-06 16:17 | 50.12873 | 8.88381 | 4987 ft | 192 kts | 248° |
| 2026-05-06 16:17 | 50.12429 | 8.86490 | 4982 ft | 183 kts | 248° |
| 2026-05-06 16:18 | 50.11992 | 8.84634 | 4851 ft | 181 kts | 248° |
| 2026-05-06 16:18 | 50.11560 | 8.82799 | 4604 ft | 179 kts | 248° |
| 2026-05-06 16:18 | 50.11134 | 8.80992 | 4345 ft | 177 kts | 249° |
| 2026-05-06 16:18 | 50.10712 | 8.79201 | 4100 ft | 176 kts | 249° |
| 2026-05-06 16:19 | 50.10286 | 8.77399 | 3857 ft | 177 kts | 249° |
| 2026-05-06 16:19 | 50.09862 | 8.75603 | 3595 ft | 176 kts | 250° |
| 2026-05-06 16:19 | 50.09447 | 8.73847 | 3342 ft | 174 kts | 250° |
| 2026-05-06 16:19 | 50.09029 | 8.72080 | 3103 ft | 174 kts | 250° |
| 2026-05-06 16:20 | 50.08609 | 8.70307 | 2845 ft | 176 kts | 250° |
| 2026-05-06 16:20 | 50.08186 | 8.68522 | 2595 ft | 176 kts | 250° |
| 2026-05-06 16:20 | 50.07743 | 8.66655 | 2330 ft | 184 kts | 251° |
| 2026-05-06 16:20 | 50.07310 | 8.64834 | 2082 ft | 171 kts | 252° |
| 2026-05-06 16:21 | 50.07041 | 8.63705 | 1924 ft | 158 kts | 251° |
| 2026-05-06 16:21 | 50.06680 | 8.62186 | 1700 ft | 142 kts | 252° |
| 2026-05-06 16:21 | 50.06342 | 8.60764 | 1499 ft | 137 kts | 252° |
| 2026-05-06 16:21 | 50.06020 | 8.59412 | 1302 ft | 132 kts | 251° |
| 2026-05-06 16:22 | 50.05702 | 8.58073 | 1098 ft | 131 kts | 251° |
| 2026-05-06 16:22 | 50.05391 | 8.56769 | 903 ft | 129 kts | 250° |
| 2026-05-06 16:22 | 50.05077 | 8.55450 | 700 ft | 131 kts | 252° |
| 2026-05-06 16:22 | 50.04760 | 8.54125 | 521 ft | 130 kts | 251° |
| 2026-05-06 16:23 | 50.04447 | 8.52814 | 369 ft | 125 kts | 251° |
| 2026-05-06 16:23 | 50.04189 | 8.51732 | 334 ft | 73 kts | 250° |
| 2026-05-06 16:23 | 50.04111 | 8.51404 | 332 ft | 1 kts | 250° |
| 2026-05-06 16:23 | 50.04081 | 8.51273 | 327 ft | 20 kts | 251° |
| 2026-05-06 16:24 | 50.04010 | 8.51068 | 325 ft | 23 kts | 230° |
| 2026-05-06 16:24 | 50.03916 | 8.50931 | 327 ft | 14 kts | 219° |
| 2026-05-06 16:24 | 50.03863 | 8.50862 | 324 ft | 8 kts | 219° |
| 2026-05-06 16:24 | 50.03827 | 8.50837 | 331 ft | 2 kts | 189° |
| 2026-05-06 16:25 | 50.03826 | 8.50836 | 331 ft | 0 kts | 188° |
| 2026-05-06 16:25 | 50.03824 | 8.50836 | 331 ft | 1 kts | 187° |
| 2026-05-06 16:26 | 50.03823 | 8.50836 | 331 ft | 0 kts | 186° |
| 2026-05-06 16:26 | 50.03818 | 8.50836 | 329 ft | 2 kts | 180° |
| 2026-05-06 16:26 | 50.03806 | 8.50840 | 329 ft | 9 kts | 163° |
| 2026-05-06 16:26 | 50.03787 | 8.50946 | 335 ft | 10 kts | 76° |
| 2026-05-06 16:27 | 50.03816 | 8.51068 | 331 ft | 15 kts | 70° |
| 2026-05-06 16:27 | 50.03849 | 8.51208 | 336 ft | 13 kts | 69° |
| 2026-05-06 16:27 | 50.03879 | 8.51331 | 335 ft | 11 kts | 69° |
| 2026-05-06 16:27 | 50.03916 | 8.51483 | 333 ft | 17 kts | 70° |
| 2026-05-06 16:28 | 50.03954 | 8.51646 | 332 ft | 15 kts | 69° |
| 2026-05-06 16:28 | 50.03989 | 8.51789 | 334 ft | 13 kts | 70° |
| 2026-05-06 16:28 | 50.04027 | 8.51949 | 334 ft | 22 kts | 69° |
| 2026-05-06 16:28 | 50.04080 | 8.52174 | 351 ft | 22 kts | 69° |
| 2026-05-06 16:29 | 50.04135 | 8.52397 | 350 ft | 22 kts | 69° |
| 2026-05-06 16:29 | 50.04185 | 8.52610 | 354 ft | 20 kts | 70° |
| 2026-05-06 16:29 | 50.04224 | 8.52771 | 354 ft | 13 kts | 69° |
| 2026-05-06 16:29 | 50.04258 | 8.52914 | 358 ft | 19 kts | 69° |
| 2026-05-06 16:30 | 50.04315 | 8.53149 | 362 ft | 26 kts | 69° |
| 2026-05-06 16:30 | 50.04355 | 8.53318 | 367 ft | 23 kts | 69° |
| 2026-05-06 16:30 | 50.04402 | 8.53611 | 375 ft | 20 kts | 83° |
| 2026-05-06 16:30 | 50.04416 | 8.53814 | 375 ft | 18 kts | 84° |
| 2026-05-06 16:31 | 50.04429 | 8.53999 | 375 ft | 16 kts | 84° |
| 2026-05-06 16:31 | 50.04439 | 8.54168 | 375 ft | 15 kts | 84° |
| 2026-05-06 16:31 | 50.04449 | 8.54323 | 374 ft | 14 kts | 84° |
| 2026-05-06 16:31 | 50.04449 | 8.54490 | 370 ft | 17 kts | 100° |
| 2026-05-06 16:32 | 50.04414 | 8.54632 | 365 ft | 14 kts | 120° |
| 2026-05-06 16:32 | 50.04337 | 8.54748 | 362 ft | 17 kts | 145° |
| 2026-05-06 16:32 | 50.04217 | 8.54825 | 356 ft | 19 kts | 161° |
| 2026-05-06 16:32 | 50.04129 | 8.54877 | 353 ft | 7 kts | 158° |
| 2026-05-06 16:33 | 50.04085 | 8.54903 | 351 ft | 6 kts | 159° |
| 2026-05-06 16:33 | 50.04070 | 8.54912 | 358 ft | 0 kts | 159° |
| 2026-05-06 16:36 | 50.04063 | 8.54916 | 351 ft | 7 kts | 159° |
| 2026-05-06 16:36 | 50.04020 | 8.55012 | 355 ft | 12 kts | 82° |
| 2026-05-06 16:36 | 50.04060 | 8.55189 | 360 ft | 23 kts | 69° |
| 2026-05-06 16:36 | 50.04119 | 8.55435 | 354 ft | 26 kts | 69° |
| 2026-05-06 16:37 | 50.04175 | 8.55667 | 357 ft | 15 kts | 70° |
| 2026-05-06 16:37 | 50.04203 | 8.55784 | 359 ft | 7 kts | 70° |
| 2026-05-06 16:37 | 50.04206 | 8.55798 | 353 ft | 0 kts | 70° |
| 2026-05-06 16:39 | 50.04233 | 8.55913 | 357 ft | 22 kts | 71° |
| 2026-05-06 16:39 | 50.04288 | 8.56144 | 359 ft | 23 kts | 70° |
| 2026-05-06 16:39 | 50.04347 | 8.56388 | 360 ft | 25 kts | 70° |
| 2026-05-06 16:40 | 50.04402 | 8.56617 | 359 ft | 21 kts | 70° |
| 2026-05-06 16:40 | 50.04437 | 8.56768 | 364 ft | 10 kts | 70° |
| 2026-05-06 16:40 | 50.04458 | 8.56834 | 359 ft | 6 kts | 55° |
| 2026-05-06 16:40 | 50.04500 | 8.56865 | 361 ft | 5 kts | 343° |
| 2026-05-06 16:41 | 50.04514 | 8.56838 | 363 ft | 3 kts | 301° |
| 2026-05-06 16:41 | 50.04534 | 8.56777 | 363 ft | 9 kts | 295° |
| 2026-05-06 16:41 | 50.04544 | 8.56741 | 356 ft | 0 kts | 295° |
| 2026-05-06 16:42 | 50.04545 | 8.56740 | 356 ft | 0 kts | 295° |